Date,TemperatureHighF,TemperatureAvgF,TemperatureLowF,DewpointHighF,DewpointAvgF,DewpointLowF,HumidityHigh,HumidityAvg,HumidityLow,PressureMaxIn,PressureMinIn,WindSpeedMaxMPH,WindSpeedAvgMPH,GustSpeedMaxMPH,PrecipitationSumIn
2013-3-1,67,66,65,66,65,64,98,98,98,29.95,29.83,13,9,22,3.93
2013-3-3,69,67,66,68,66,65,98,97,96,30.07,30.07,9,8,17,0.00
2013-3-4,84,78,70,65,57,52,81,49,36,30.18,30.09,10,6,18,0.00
2013-3-5,84,79,69,66,57,51,82,48,34,30.18,30.09,10,6,19,0.00
2013-3-6,87,81,70,73,58,50,94,47,31,30.15,30.07,8,4,14,0.00
2013-3-7,87,81,66,73,60,54,98,52,36,30.15,30.03,8,5,14,0.00
2013-3-8,86,81,64,74,60,53,98,52,34,30.21,30.09,9,4,13,0.00
2013-3-9,84,71,68,71,66,51,95,86,35,30.18,30.09,9,1,13,0.00
2013-3-10,87,69,63,75,63,54,98,86,35,30.12,30.03,8,1,15,0.00
2013-3-11,87,73,64,79,64,56,98,79,37,30.15,30.03,7,2,14,0.00
2013-3-12,86,74,64,76,64,53,98,77,36,30.15,30.07,7,1,10,0.00
2013-3-13,90,81,64,74,62,54,98,55,30,30.01,29.86,8,4,15,0.00
2013-3-14,87,79,68,72,62,51,98,59,31,29.95,29.86,7,4,14,0.00
2013-3-15,72,70,70,71,70,69,98,98,96,30.01,29.89,6,4,13,0.17
2013-3-16,94,76,66,72,68,63,98,81,40,29.98,29.71,8,2,13,0.04
2013-3-17,76,71,66,71,65,43,98,84,34,30.12,29.68,12,4,26,0.00
2013-3-18,77,71,62,56,51,47,80,49,36,30.24,30.15,8,5,15,0.05
2013-3-19,80,73,60,71,58,49,98,61,36,30.30,30.21,8,3,14,0.00
2013-3-20,86,77,61,73,60,53,98,59,38,30.33,30.18,7,4,13,0.00
2013-3-21,90,80,63,68,56,49,98,47,26,30.18,29.98,7,4,13,0.00
2013-3-22,93,85,76,62,60,56,60,43,32,30.01,29.89,14,10,23,0.00
2013-3-23,96,78,73,70,58,54,89,51,28,30.07,29.92,12,4,16,0.00
2013-3-24,98,72,68,76,68,56,98,91,29,30.03,29.86,5,0,10,0.00
2013-3-25,87,80,65,75,65,57,98,64,47,30.12,30.01,8,4,15,0.00
2013-3-26,92,82,71,77,70,63,98,71,42,30.09,29.95,8,3,13,0.00
2013-3-27,97,85,68,78,67,60,98,57,31,30.09,29.98,8,4,12,0.00
2013-3-28,96,76,66,71,66,55,98,76,29,30.07,29.95,8,3,13,0.00